Time;durP1;ratioP1;P1;durP2;ratioP2;P2;SDS_P1;SDS_P2;PMS_P1;PMS_P2;Temp;Humidity;BMP_temperature;BMP_pressure;BME280_temperature;BME280_humidity;BME280_pressure;Samples;Min_cycle;Max_cycle;Signal;HPM_P1;HPM_P2
2023/06/03 00:00:25;;;;;;;2.37;1.80;;;11.90;99.90;;;;;;4860223;29;20208;-70
2023/06/03 00:02:56;;;;;;;1.87;1.73;;;11.90;99.90;;;;;;4875698;29;20561;-68
2023/06/03 00:05:23;;;;;;;2.13;1.87;;;11.80;99.90;;;;;;4858839;29;20228;-69
2023/06/03 00:07:50;;;;;;;1.97;1.77;;;11.70;99.90;;;;;;4867529;29;20311;-69
2023/06/03 00:10:17;;;;;;;4.17;2.30;;;11.80;99.90;;;;;;4879245;29;20200;-69
2023/06/03 00:12:47;;;;;;;3.27;2.30;;;11.70;99.90;;;;;;4884134;29;20635;-69
2023/06/03 00:15:14;;;;;;;4.50;2.33;;;11.70;99.90;;;;;;4882089;29;20212;-70
2023/06/03 00:17:41;;;;;;;4.67;2.50;;;11.70;99.90;;;;;;4888250;29;20686;-69
2023/06/03 00:20:09;;;;;;;3.60;2.30;;;11.70;99.90;;;;;;4862510;29;20301;-68
2023/06/03 00:22:37;;;;;;;2.23;1.70;;;11.70;99.90;;;;;;4869890;29;20252;-68
2023/06/03 00:25:08;;;;;;;2.73;2.53;;;11.60;99.90;;;;;;4882200;29;20205;-68
2023/06/03 00:27:36;;;;;;;3.17;2.43;;;11.60;99.90;;;;;;4885988;29;20527;-68
2023/06/03 00:30:05;;;;;;;3.13;2.00;;;11.50;99.90;;;;;;4887370;29;20684;-68
2023/06/03 00:32:32;;;;;;;5.70;2.00;;;11.50;99.90;;;;;;4865076;29;20205;-68
2023/06/03 00:34:59;;;;;;;2.33;1.97;;;11.50;99.90;;;;;;4865026;29;20688;-67
2023/06/03 00:37:27;;;;;;;5.30;2.77;;;11.50;99.90;;;;;;4859817;29;20214;-68
2023/06/03 00:39:54;;;;;;;3.37;2.43;;;11.50;99.90;;;;;;4873042;29;20989;-69
2023/06/03 00:42:21;;;;;;;4.33;1.93;;;11.50;99.90;;;;;;4888172;29;20214;-67
2023/06/03 00:44:48;;;;;;;2.13;1.43;;;11.50;99.90;;;;;;4886191;29;20548;-66
2023/06/03 00:47:17;;;;;;;2.93;1.70;;;11.50;99.90;;;;;;4871435;29;20212;-66
2023/06/03 00:49:45;;;;;;;2.83;1.90;;;11.50;99.90;;;;;;4882198;29;20190;-66
2023/06/03 00:52:15;;;;;;;4.17;2.13;;;11.50;99.90;;;;;;4870663;29;20200;-66
2023/06/03 00:54:42;;;;;;;3.20;1.70;;;11.40;99.90;;;;;;4871558;29;20296;-66
2023/06/03 00:57:13;;;;;;;4.53;1.50;;;11.40;99.90;;;;;;4885594;29;20221;-67
2023/06/03 00:59:42;;;;;;;2.27;1.83;;;11.40;99.90;;;;;;4857646;29;20202;-69
2023/06/03 01:02:10;;;;;;;0.97;0.97;;;11.40;99.90;;;;;;4872288;29;20211;-65
2023/06/03 01:04:38;;;;;;;3.17;1.50;;;11.40;99.90;;;;;;4882369;29;20194;-65
2023/06/03 01:07:27;;;;;;;1.90;1.43;;;11.40;99.90;;;;;;4886213;29;20297;-65
2023/06/03 01:09:56;;;;;;;1.37;1.10;;;11.40;99.90;;;;;;4869876;29;20207;-71
2023/06/03 01:12:41;;;;;;;1.77;1.30;;;11.40;99.90;;;;;;4876421;29;20249;-69
2023/06/03 01:15:13;;;;;;;1.60;1.20;;;11.40;99.90;;;;;;4888120;29;20319;-69
2023/06/03 01:17:47;;;;;;;3.83;1.23;;;11.30;99.90;;;;;;4893421;29;20665;-69
2023/06/03 01:20:16;;;;;;;1.20;1.10;;;11.30;99.90;;;;;;4893599;29;20263;-68
2023/06/03 01:22:49;;;;;;;1.53;1.43;;;11.30;99.90;;;;;;4885960;29;20218;-69
2023/06/03 01:25:20;;;;;;;1.23;1.13;;;11.20;99.90;;;;;;4872397;29;20396;-68
2023/06/03 01:27:50;;;;;;;1.80;1.10;;;11.10;99.90;;;;;;4875149;29;20205;-69
2023/06/03 01:30:19;;;;;;;3.30;0.90;;;11.10;99.90;;;;;;4871086;29;20788;-69
2023/06/03 01:32:49;;;;;;;4.63;1.00;;;11.10;99.90;;;;;;4874264;29;20197;-69
2023/06/03 01:35:17;;;;;;;1.43;1.00;;;11.00;99.90;;;;;;4890379;29;20215;-68
2023/06/03 01:37:45;;;;;;;0.80;0.80;;;11.00;99.90;;;;;;4892984;29;20193;-69
2023/06/03 01:40:14;;;;;;;2.00;1.50;;;11.00;99.90;;;;;;4874783;29;20630;-68
2023/06/03 01:42:41;;;;;;;1.27;1.17;;;11.00;99.90;;;;;;4866862;29;20715;-68
2023/06/03 01:45:09;;;;;;;6.43;1.50;;;10.90;99.90;;;;;;4872565;29;20201;-68
2023/06/03 01:47:36;;;;;;;1.13;0.90;;;11.00;99.90;;;;;;4875990;29;20568;-67
2023/06/03 01:50:04;;;;;;;0.80;0.80;;;11.00;99.90;;;;;;4876053;29;20211;-71
2023/06/03 01:52:31;;;;;;;1.30;1.20;;;10.90;99.90;;;;;;4869885;29;20303;-69
2023/06/03 01:54:58;;;;;;;1.00;1.00;;;10.90;99.90;;;;;;4885971;29;20253;-67
2023/06/03 01:57:27;;;;;;;2.00;1.30;;;10.90;99.90;;;;;;4868496;29;20233;-66
2023/06/03 01:59:55;;;;;;;1.20;1.10;;;10.90;99.90;;;;;;4868905;29;20622;-65
2023/06/03 02:02:23;;;;;;;1.33;0.90;;;10.80;99.90;;;;;;4853801;29;20305;-66
2023/06/03 02:04:51;;;;;;;1.07;0.97;;;10.80;99.90;;;;;;4888821;29;20406;-66
2023/06/03 02:07:20;;;;;;;1.40;1.30;;;10.70;99.90;;;;;;4868128;29;20300;-65
2023/06/03 02:09:47;;;;;;;1.13;1.03;;;10.70;99.90;;;;;;4879099;29;20197;-67
2023/06/03 02:12:14;;;;;;;1.03;1.00;;;10.70;99.90;;;;;;4889150;29;20529;-67
2023/06/03 02:14:41;;;;;;;1.07;0.97;;;10.60;99.90;;;;;;4867289;29;20264;-68
2023/06/03 02:17:11;;;;;;;0.90;0.90;;;10.60;99.90;;;;;;4871346;29;20237;-67
2023/06/03 02:19:39;;;;;;;0.90;0.90;;;10.60;99.90;;;;;;4863115;29;20644;-70
2023/06/03 02:22:06;;;;;;;9.13;1.20;;;10.50;99.90;;;;;;4868300;29;20712;-66
2023/06/03 02:24:33;;;;;;;1.13;1.00;;;10.50;99.90;;;;;;4887935;29;20232;-65
2023/06/03 02:27:01;;;;;;;2.83;1.40;;;10.50;99.90;;;;;;4879064;29;20641;-65
2023/06/03 02:29:29;;;;;;;2.90;1.40;;;10.60;99.90;;;;;;4865327;29;20823;-64
2023/06/03 02:31:58;;;;;;;4.43;1.80;;;10.60;99.90;;;;;;4870400;29;20197;-64
2023/06/03 02:34:25;;;;;;;3.30;0.73;;;10.60;99.90;;;;;;4871785;29;20248;-64
2023/06/03 02:36:53;;;;;;;7.43;1.43;;;10.50;99.90;;;;;;4869532;29;20267;-64
2023/06/03 02:39:21;;;;;;;0.77;0.70;;;10.60;99.90;;;;;;4867336;29;20208;-64
2023/06/03 02:41:48;;;;;;;2.03;1.13;;;10.60;99.90;;;;;;4890004;29;20189;-66
2023/06/03 02:44:17;;;;;;;0.60;0.60;;;10.60;99.90;;;;;;4869702;29;20240;-67
2023/06/03 02:46:45;;;;;;;0.87;0.87;;;10.60;99.90;;;;;;4854876;29;20303;-68
2023/06/03 02:49:13;;;;;;;1.03;0.93;;;10.50;99.90;;;;;;4869619;29;20320;-68
2023/06/03 02:51:40;;;;;;;0.90;0.90;;;10.50;99.90;;;;;;4868488;29;20213;-67
2023/06/03 02:54:08;;;;;;;3.03;1.10;;;10.50;99.90;;;;;;4885684;29;20265;-67
2023/06/03 02:56:35;;;;;;;7.30;1.07;;;10.50;99.90;;;;;;4882237;29;20203;-64
2023/06/03 02:59:02;;;;;;;1.07;0.97;;;10.50;99.90;;;;;;4869046;29;20300;-60
2023/06/03 03:01:30;;;;;;;2.20;1.10;;;10.40;99.90;;;;;;4872012;29;20207;-59
2023/06/03 03:03:58;;;;;;;1.33;1.00;;;10.40;99.90;;;;;;4879260;29;20296;-60
2023/06/03 03:06:25;;;;;;;0.93;0.90;;;10.40;99.90;;;;;;4886599;29;20776;-60
2023/06/03 03:08:53;;;;;;;0.80;0.80;;;10.50;99.90;;;;;;4870335;29;20349;-60
2023/06/03 03:11:30;;;;;;;0.77;0.77;;;10.40;99.90;;;;;;4874757;29;20603;-58
2023/06/03 03:13:58;;;;;;;1.07;1.07;;;10.40;99.90;;;;;;4871758;29;20256;-57
2023/06/03 03:16:26;;;;;;;0.70;0.70;;;10.40;99.90;;;;;;4889062;29;20201;-57
2023/06/03 03:18:57;;;;;;;1.30;0.83;;;10.50;99.90;;;;;;4869556;29;20206;-57
2023/06/03 03:21:25;;;;;;;0.70;0.70;;;10.50;99.90;;;;;;4864520;29;20201;-56
2023/06/03 03:23:52;;;;;;;1.57;1.00;;;10.60;99.90;;;;;;4866720;29;20285;-58
2023/06/03 03:26:22;;;;;;;0.97;0.90;;;10.60;99.90;;;;;;4863658;29;20201;-59
2023/06/03 03:28:52;;;;;;;1.63;1.53;;;10.70;99.90;;;;;;4871545;29;20198;-59
2023/06/03 03:31:21;;;;;;;0.77;0.77;;;10.70;99.90;;;;;;4869474;29;20660;-59
2023/06/03 03:33:49;;;;;;;2.63;1.27;;;10.70;99.90;;;;;;4873055;29;20193;-60
2023/06/03 03:36:25;;;;;;;1.43;1.10;;;10.80;99.90;;;;;;4865913;29;20258;-60
2023/06/03 03:39:03;;;;;;;1.50;1.20;;;10.80;99.90;;;;;;4867455;29;20203;-61
2023/06/03 03:41:36;;;;;;;1.20;1.10;;;10.80;99.90;;;;;;4866024;29;20213;-66
2023/06/03 03:44:03;;;;;;;0.93;0.93;;;10.80;99.90;;;;;;4878948;29;20918;-61
2023/06/03 03:46:32;;;;;;;1.40;1.07;;;10.70;99.90;;;;;;4857434;29;20272;-60
2023/06/03 03:48:59;;;;;;;1.27;1.17;;;10.70;99.90;;;;;;4869811;29;20211;-61
2023/06/03 03:51:27;;;;;;;1.70;1.30;;;11.00;99.90;;;;;;4886534;29;20539;-61
2023/06/03 03:53:56;;;;;;;1.07;1.03;;;11.30;99.90;;;;;;4884597;29;20508;-60
2023/06/03 03:56:28;;;;;;;21.63;3.30;;;11.60;99.90;;;;;;4871525;29;20268;-61
2023/06/03 03:58:58;;;;;;;2.13;1.03;;;12.00;99.90;;;;;;4874081;29;20203;-61
2023/06/03 04:01:38;;;;;;;3.20;1.60;;;12.10;99.90;;;;;;4867694;29;20213;-61
2023/06/03 04:04:10;;;;;;;2.77;1.20;;;12.20;99.90;;;;;;4869406;29;20667;-61
2023/06/03 04:06:39;;;;;;;1.13;1.03;;;12.10;99.90;;;;;;4887753;29;20669;-60
2023/06/03 04:09:10;;;;;;;1.63;1.47;;;12.00;99.90;;;;;;4882280;29;20703;-61
2023/06/03 04:11:42;;;;;;;1.00;0.97;;;11.80;99.90;;;;;;4872346;29;20201;-60
2023/06/03 04:14:14;;;;;;;2.37;1.13;;;11.80;99.90;;;;;;4865184;29;20247;-60
2023/06/03 04:16:51;;;;;;;1.03;1.00;;;12.10;99.90;;;;;;4866734;29;20196;-60
2023/06/03 04:19:37;;;;;;;0.90;0.90;;;12.80;99.90;;;;;;4860770;29;20209;-60
2023/06/03 04:22:22;;;;;;;1.00;0.83;;;13.40;99.90;;;;;;4862134;29;20215;-60
2023/06/03 04:25:07;;;;;;;5.07;1.27;;;13.90;99.90;;;;;;4864542;29;20644;-59
2023/06/03 04:27:43;;;;;;;30.53;2.37;;;14.20;99.90;;;;;;4868166;29;20189;-60
2023/06/03 04:30:13;;;;;;;9.57;2.13;;;14.70;99.90;;;;;;4868970;29;20282;-60
2023/06/03 04:32:40;;;;;;;1.58;0.80;;;15.10;99.90;;;;;;4871789;29;20193;-60
2023/06/03 04:35:07;;;;;;;0.98;0.90;;;15.50;99.90;;;;;;4855114;29;20876;-60
2023/06/03 04:37:38;;;;;;;6.07;1.48;;;15.80;99.90;;;;;;4872753;29;20818;-60
2023/06/03 04:40:09;;;;;;;2.15;1.20;;;16.30;99.90;;;;;;4873985;29;20209;-60
2023/06/03 04:42:37;;;;;;;2.33;1.00;;;16.60;99.90;;;;;;4886916;29;20219;-59
2023/06/03 04:45:06;;;;;;;1.27;0.93;;;16.70;99.90;;;;;;4875362;29;20233;-59
2023/06/03 04:47:35;;;;;;;1.55;0.95;;;16.70;99.90;;;;;;4890114;29;20205;-60
2023/06/03 04:50:04;;;;;;;1.70;1.10;;;17.00;99.90;;;;;;4873312;29;20190;-60
2023/06/03 04:52:32;;;;;;;2.58;0.90;;;17.50;99.90;;;;;;4864848;29;20674;-60
2023/06/03 04:55:00;;;;;;;3.45;1.33;;;17.90;99.90;;;;;;4873189;29;20204;-60
2023/06/03 04:57:28;;;;;;;1.20;0.93;;;17.90;99.90;;;;;;4869108;29;20198;-60
2023/06/03 04:59:55;;;;;;;7.75;1.05;;;17.50;99.90;;;;;;4863732;29;20206;-60
2023/06/03 05:02:29;;;;;;;1.30;1.08;;;17.90;99.90;;;;;;4889246;29;20205;-61
2023/06/03 05:04:59;;;;;;;1.88;1.20;;;18.00;99.90;;;;;;4863826;29;20292;-65
2023/06/03 05:07:26;;;;;;;20.65;1.70;;;18.60;99.90;;;;;;4885081;29;20668;-61
2023/06/03 05:09:54;;;;;;;1.42;0.82;;;19.10;99.90;;;;;;4868719;29;20257;-61
2023/06/03 05:12:22;;;;;;;0.50;0.50;;;19.50;99.90;;;;;;4883748;29;20244;-62
2023/06/03 05:14:50;;;;;;;1.42;0.98;;;19.70;99.90;;;;;;4856239;29;20611;-60
2023/06/03 05:17:17;;;;;;;9.52;0.90;;;19.40;99.90;;;;;;4876491;29;20232;-59
2023/06/03 05:19:44;;;;;;;4.90;1.27;;;19.40;99.90;;;;;;4891504;29;20193;-59
2023/06/03 05:22:11;;;;;;;3.88;0.93;;;18.90;99.90;;;;;;4876051;29;20288;-59
2023/06/03 05:24:39;;;;;;;1.98;0.80;;;19.00;99.90;;;;;;4866307;29;20305;-59
2023/06/03 05:27:07;;;;;;;1.00;0.90;;;18.40;99.90;;;;;;4876335;29;20213;-59
2023/06/03 05:29:34;;;;;;;2.40;0.80;;;18.60;99.90;;;;;;4884411;29;20281;-60
2023/06/03 05:32:02;;;;;;;4.20;1.05;;;18.60;99.90;;;;;;4872579;29;20220;-60
2023/06/03 05:34:29;;;;;;;4.07;1.13;;;18.40;99.90;;;;;;4889822;29;20196;-60
2023/06/03 05:36:57;;;;;;;1.02;0.82;;;19.10;99.90;;;;;;4874003;29;20481;-59
2023/06/03 05:39:24;;;;;;;2.92;1.20;;;19.50;99.90;;;;;;4885591;29;20264;-58
2023/06/03 05:41:51;;;;;;;2.63;0.90;;;20.10;99.90;;;;;;4874710;29;20611;-60
2023/06/03 05:44:18;;;;;;;1.60;1.02;;;20.30;99.90;;;;;;4882018;29;20248;-60
2023/06/03 05:46:45;;;;;;;2.00;1.08;;;21.00;99.90;;;;;;4884793;29;20228;-60
2023/06/03 05:49:12;;;;;;;1.40;0.85;;;21.60;99.90;;;;;;4869933;29;20188;-61
2023/06/03 05:51:40;;;;;;;1.15;0.93;;;21.50;99.90;;;;;;4885198;29;20296;-61
2023/06/03 05:54:07;;;;;;;1.70;0.73;;;20.90;99.90;;;;;;4887398;29;20204;-62
2023/06/03 05:56:34;;;;;;;0.75;0.70;;;21.30;99.90;;;;;;4874440;29;20361;-60
2023/06/03 05:59:01;;;;;;;1.60;0.90;;;22.60;99.90;;;;;;4867884;29;20210;-61
2023/06/03 06:01:35;;;;;;;1.10;1.00;;;22.00;99.90;;;;;;4880285;29;20751;-59
2023/06/03 06:04:03;;;;;;;2.03;1.00;;;21.70;99.90;;;;;;4886616;29;20220;-60
2023/06/03 06:06:32;;;;;;;2.97;1.10;;;19.90;99.90;;;;;;4869728;29;20193;-61
2023/06/03 06:08:59;;;;;;;0.85;0.80;;;20.30;99.90;;;;;;4875495;29;20201;-60
2023/06/03 06:11:27;;;;;;;1.90;0.80;;;20.10;99.90;;;;;;4861826;29;20198;-63
2023/06/03 06:13:54;;;;;;;1.25;0.90;;;21.20;99.90;;;;;;4885642;29;20240;-60
2023/06/03 06:16:22;;;;;;;4.32;0.82;;;22.00;99.90;;;;;;4875537;29;20205;-59
2023/06/03 06:18:49;;;;;;;2.15;0.93;;;21.80;99.90;;;;;;4887791;29;20186;-63
2023/06/03 06:21:17;;;;;;;2.95;1.17;;;20.70;99.90;;;;;;4867890;29;20233;-57
2023/06/03 06:23:45;;;;;;;2.17;1.00;;;21.20;99.90;;;;;;4882318;29;20699;-58
2023/06/03 06:26:14;;;;;;;0.90;0.90;;;22.40;99.90;;;;;;4868686;29;20513;-58
2023/06/03 06:28:45;;;;;;;2.53;1.00;;;22.30;99.90;;;;;;4871904;29;20787;-58
2023/06/03 06:31:18;;;;;;;5.13;0.88;;;22.10;99.90;;;;;;4867054;29;20229;-57
2023/06/03 06:33:49;;;;;;;2.33;1.05;;;22.50;99.90;;;;;;4869625;29;20207;-59
2023/06/03 06:36:32;;;;;;;1.05;0.90;;;22.70;99.90;;;;;;4866916;29;20618;-59
2023/06/03 06:39:22;;;;;;;1.45;1.02;;;21.50;99.90;;;;;;4869311;29;20197;-59
2023/06/03 06:41:49;;;;;;;1.00;0.95;;;22.10;99.90;;;;;;4879340;29;20202;-58
2023/06/03 06:44:16;;;;;;;1.38;1.00;;;21.90;99.90;;;;;;4888647;29;20729;-59
2023/06/03 06:46:45;;;;;;;1.65;1.10;;;22.10;99.90;;;;;;4865388;29;20595;-59
2023/06/03 06:49:12;;;;;;;6.07;1.00;;;22.40;99.90;;;;;;4882912;29;20193;-58
2023/06/03 06:51:42;;;;;;;1.33;1.05;;;23.60;99.90;;;;;;4872827;29;20647;-61
2023/06/03 06:54:09;;;;;;;2.25;0.95;;;23.70;99.90;;;;;;4870415;29;20300;-62
2023/06/03 06:56:38;;;;;;;1.30;0.93;;;23.30;99.90;;;;;;4870381;29;20205;-62
2023/06/03 06:59:05;;;;;;;2.20;1.02;;;22.50;99.90;;;;;;4869260;29;20266;-61
2023/06/03 07:01:33;;;;;;;2.28;1.33;;;22.20;99.90;;;;;;4870003;29;20497;-61
2023/06/03 07:04:01;;;;;;;3.90;1.20;;;22.40;99.90;;;;;;4864632;29;20255;-62
2023/06/03 07:06:28;;;;;;;2.47;1.17;;;23.10;99.90;;;;;;4866796;29;20235;-61
2023/06/03 07:09:00;;;;;;;4.13;1.25;;;23.40;99.90;;;;;;4865379;29;20291;-61
2023/06/03 07:11:36;;;;;;;1.63;0.95;;;23.40;99.90;;;;;;4869854;29;20201;-61
2023/06/03 07:14:04;;;;;;;1.63;1.27;;;24.40;99.90;;;;;;4882313;29;20743;-61
2023/06/03 07:16:31;;;;;;;2.30;0.82;;;24.60;99.90;;;;;;4864727;29;20201;-61
2023/06/03 07:18:59;;;;;;;0.80;0.70;;;25.10;99.90;;;;;;4884964;29;20213;-62
2023/06/03 07:21:35;;;;;;;4.28;1.17;;;25.90;99.90;;;;;;4864322;29;20192;-61
2023/06/03 07:24:07;;;;;;;5.13;1.17;;;25.00;99.90;;;;;;4883221;29;20208;-60
2023/06/03 07:26:35;;;;;;;2.58;1.08;;;25.50;99.90;;;;;;4865204;29;20201;-59
2023/06/03 07:29:04;;;;;;;0.90;0.90;;;24.10;99.90;;;;;;4864815;29;20201;-60
2023/06/03 07:31:35;;;;;;;1.75;0.98;;;24.40;99.90;;;;;;4881823;29;20192;-61
2023/06/03 07:34:04;;;;;;;1.88;0.90;;;24.40;99.90;;;;;;4864056;29;20250;-63
2023/06/03 07:36:43;;;;;;;2.40;0.98;;;24.90;99.90;;;;;;4854659;29;20567;-62
2023/06/03 07:39:17;;;;;;;3.83;1.02;;;24.60;99.90;;;;;;4865456;29;20700;-62
2023/06/03 07:41:50;;;;;;;2.55;1.35;;;25.20;99.90;;;;;;4870108;29;20521;-62
2023/06/03 07:44:44;;;;;;;2.50;0.88;;;25.00;99.90;;;;;;4866869;29;20213;-62
2023/06/03 07:47:13;;;;;;;3.00;1.10;;;24.80;99.90;;;;;;4883916;29;20204;-62
2023/06/03 07:49:44;;;;;;;1.38;0.85;;;24.60;99.90;;;;;;4887346;29;20197;-62
2023/06/03 07:52:21;;;;;;;1.15;0.98;;;25.30;99.90;;;;;;4861380;29;20232;-62
2023/06/03 07:54:49;;;;;;;2.47;1.13;;;26.20;99.90;;;;;;4867753;29;20265;-62
2023/06/03 07:57:16;;;;;;;2.45;1.13;;;25.70;99.90;;;;;;4869046;29;20640;-62
2023/06/03 07:59:52;;;;;;;2.80;0.88;;;25.20;99.90;;;;;;4851947;29;20201;-64
2023/06/03 08:02:20;;;;;;;2.20;1.05;;;25.90;99.90;;;;;;4870123;29;20690;-62
2023/06/03 08:04:47;;;;;;;3.10;0.90;;;25.50;99.90;;;;;;4864528;29;20293;-62
2023/06/03 08:07:15;;;;;;;1.90;0.88;;;24.80;99.90;;;;;;4864991;29;20201;-62
2023/06/03 08:09:43;;;;;;;1.90;1.00;;;25.70;99.90;;;;;;4884478;29;20608;-62
2023/06/03 08:12:10;;;;;;;1.13;0.73;;;26.00;99.90;;;;;;4882109;29;20221;-62
2023/06/03 08:14:39;;;;;;;1.13;0.88;;;25.30;99.90;;;;;;4866151;29;20219;-62
2023/06/03 08:17:12;;;;;;;2.53;1.20;;;25.20;99.90;;;;;;4863249;29;20266;-62
2023/06/03 08:19:43;;;;;;;1.45;0.80;;;26.80;99.90;;;;;;4875994;29;20275;-62
2023/06/03 08:22:28;;;;;;;3.28;1.08;;;27.10;99.90;;;;;;4887064;29;20552;-62
2023/06/03 08:24:55;;;;;;;1.10;1.00;;;27.30;99.90;;;;;;4867926;29;20664;-62
2023/06/03 08:27:22;;;;;;;1.13;1.02;;;27.90;99.90;;;;;;4863531;29;20261;-63
2023/06/03 08:29:50;;;;;;;1.60;0.90;;;27.60;99.90;;;;;;4879003;29;20224;-62
2023/06/03 08:32:17;;;;;;;2.05;0.98;;;26.60;99.90;;;;;;4879529;29;20201;-62
2023/06/03 08:34:44;;;;;;;1.23;0.80;;;26.00;99.90;;;;;;4864891;29;20208;-61
2023/06/03 08:37:11;;;;;;;1.55;1.00;;;25.80;99.90;;;;;;4865762;29;20659;-61
2023/06/03 08:39:39;;;;;;;2.25;0.95;;;26.30;99.90;;;;;;4860138;29;20221;-62
2023/06/03 08:42:08;;;;;;;3.47;1.10;;;26.40;99.90;;;;;;4873813;29;20228;-62
2023/06/03 08:44:43;;;;;;;2.45;1.27;;;26.90;99.90;;;;;;4874588;29;20233;-62
2023/06/03 08:47:16;;;;;;;1.00;0.90;;;27.60;99.90;;;;;;4869263;29;20596;-62
2023/06/03 08:50:10;;;;;;;2.80;1.13;;;26.70;99.90;;;;;;4866666;29;20209;-61
2023/06/03 08:52:39;;;;;;;2.13;1.08;;;27.10;99.90;;;;;;4883405;29;20587;-62
2023/06/03 08:55:09;;;;;;;2.08;0.90;;;27.60;99.90;;;;;;4871893;29;20219;-62
2023/06/03 08:57:49;;;;;;;2.13;1.10;;;26.10;99.90;;;;;;4869269;29;20293;-62
2023/06/03 09:00:25;;;;;;;1.75;0.88;;;26.80;99.90;;;;;;4876060;29;20193;-62
2023/06/03 09:02:53;;;;;;;0.98;0.90;;;28.10;99.90;;;;;;4853119;29;20492;-61
2023/06/03 09:05:21;;;;;;;1.48;0.95;;;27.40;99.90;;;;;;4858105;29;20324;-62
2023/06/03 09:07:50;;;;;;;1.27;0.90;;;25.70;99.90;;;;;;4867418;29;20719;-61
2023/06/03 09:10:21;;;;;;;1.13;0.73;;;26.50;99.90;;;;;;4861459;29;20224;-61
2023/06/03 09:12:49;;;;;;;0.82;0.82;;;26.30;99.90;;;;;;4865270;29;20699;-61
2023/06/03 09:15:16;;;;;;;1.00;0.88;;;26.10;99.90;;;;;;4874640;29;20205;-61
2023/06/03 09:17:44;;;;;;;1.35;1.00;;;26.10;99.90;;;;;;4870622;29;20284;-61
2023/06/03 09:20:13;;;;;;;3.85;1.08;;;26.80;99.90;;;;;;4879737;29;20604;-61
2023/06/03 09:22:42;;;;;;;1.20;0.75;;;26.70;99.90;;;;;;4870266;29;20548;-61
2023/06/03 09:25:10;;;;;;;2.97;1.02;;;26.00;99.60;;;;;;4887990;29;20309;-62
2023/06/03 09:27:38;;;;;;;3.47;1.00;;;26.60;99.90;;;;;;4886014;29;20727;-61
2023/06/03 09:30:06;;;;;;;1.05;0.93;;;26.20;98.90;;;;;;4868504;29;20247;-69
2023/06/03 09:32:39;;;;;;;1.95;1.02;;;25.50;99.50;;;;;;4864068;29;20720;-69
2023/06/03 09:35:06;;;;;;;1.45;0.90;;;25.20;99.70;;;;;;4880604;29;20578;-69
2023/06/03 09:37:34;;;;;;;1.60;0.80;;;25.30;98.60;;;;;;4867368;29;20219;-69
2023/06/03 09:40:04;;;;;;;1.05;0.80;;;24.60;97.80;;;;;;4870203;29;20201;-69
2023/06/03 09:42:44;;;;;;;0.88;0.80;;;25.30;98.90;;;;;;4884649;29;20201;-69
2023/06/03 09:45:32;;;;;;;2.58;0.80;;;26.00;98.40;;;;;;4868841;29;20662;-69
2023/06/03 09:48:01;;;;;;;2.75;0.95;;;25.20;99.90;;;;;;4870900;29;20291;-69
2023/06/03 09:50:30;;;;;;;1.45;1.02;;;26.20;97.00;;;;;;4873104;29;20197;-69
2023/06/03 09:52:59;;;;;;;1.02;0.82;;;26.80;97.10;;;;;;4869153;29;20201;-69
2023/06/03 09:55:34;;;;;;;1.33;1.02;;;27.00;96.40;;;;;;4888451;29;20201;-67
2023/06/03 09:58:08;;;;;;;1.85;1.30;;;25.90;95.70;;;;;;4853725;29;20263;-69
2023/06/03 10:00:47;;;;;;;4.47;1.20;;;26.60;96.00;;;;;;4870206;29;20202;-67
2023/06/03 10:03:16;;;;;;;1.10;1.00;;;25.90;95.70;;;;;;4873738;29;20202;-69
2023/06/03 10:05:43;;;;;;;3.38;1.10;;;24.60;95.60;;;;;;4865499;29;20699;-68
2023/06/03 10:08:10;;;;;;;2.50;1.20;;;24.10;95.20;;;;;;4869414;29;20206;-69
2023/06/03 10:10:55;;;;;;;1.00;0.95;;;25.00;96.20;;;;;;4890218;29;20197;-68
2023/06/03 10:13:23;;;;;;;0.80;0.80;;;24.70;95.50;;;;;;4870797;29;20706;-68
2023/06/03 10:15:52;;;;;;;1.52;1.02;;;24.00;95.60;;;;;;4857448;29;20781;-68
2023/06/03 10:18:39;;;;;;;2.05;0.98;;;25.00;96.30;;;;;;4872269;29;20739;-68
2023/06/03 10:21:11;;;;;;;2.67;1.15;;;25.30;95.70;;;;;;4857821;29;20247;-68
2023/06/03 10:23:40;;;;;;;2.58;0.80;;;26.00;94.80;;;;;;4872503;29;20208;-68
2023/06/03 10:26:09;;;;;;;2.80;0.95;;;26.30;95.10;;;;;;4884004;29;20237;-69
2023/06/03 10:28:37;;;;;;;2.45;0.82;;;24.90;99.90;;;;;;4877755;29;20272;-71
2023/06/03 10:31:05;;;;;;;4.32;1.00;;;25.00;95.00;;;;;;4874100;29;20201;-71
2023/06/03 10:33:35;;;;;;;1.35;1.00;;;25.20;94.30;;;;;;4877147;29;20207;-69
2023/06/03 10:36:03;;;;;;;1.30;1.10;;;25.80;94.40;;;;;;4888224;29;20208;-70
2023/06/03 10:38:31;;;;;;;2.50;1.00;;;24.90;93.80;;;;;;4872097;29;20209;-70
2023/06/03 10:41:02;;;;;;;1.95;1.15;;;25.20;95.00;;;;;;4887484;29;20201;-68
2023/06/03 10:43:31;;;;;;;1.15;1.00;;;25.40;94.40;;;;;;4872123;29;20208;-69
2023/06/03 10:46:01;;;;;;;0.85;0.85;;;26.00;94.00;;;;;;4867376;29;20213;-68
2023/06/03 10:48:29;;;;;;;1.48;1.02;;;26.20;94.30;;;;;;4883540;29;20256;-68
2023/06/03 10:51:29;;;;;;;1.70;1.17;;;26.10;93.20;;;;;;4884629;29;20201;-67
2023/06/03 10:54:24;;;;;;;1.35;1.00;;;26.60;93.00;;;;;;4868252;29;20208;-68
2023/06/03 10:56:59;;;;;;;1.08;0.88;;;25.20;92.90;;;;;;4867796;29;20204;-67
2023/06/03 10:59:38;;;;;;;1.08;0.90;;;25.90;92.70;;;;;;4888133;29;20205;-68
2023/06/03 11:02:05;;;;;;;1.45;1.00;;;25.70;92.60;;;;;;4884515;29;20193;-69
2023/06/03 11:04:36;;;;;;;1.33;0.68;;;26.30;91.60;;;;;;4886701;29;20297;-68
2023/06/03 11:07:05;;;;;;;2.40;1.08;;;26.10;91.80;;;;;;4868131;29;20615;-69
2023/06/03 11:09:36;;;;;;;3.53;0.88;;;25.20;91.20;;;;;;4890082;29;20643;-67
2023/06/03 11:12:13;;;;;;;1.00;0.90;;;25.40;92.40;;;;;;4869289;29;20550;-69
2023/06/03 11:14:48;;;;;;;2.80;1.30;;;24.90;92.00;;;;;;4882760;29;20458;-69
2023/06/03 11:17:20;;;;;;;0.85;0.80;;;25.60;92.60;;;;;;4858178;29;20288;-68
2023/06/03 11:19:49;;;;;;;0.70;0.70;;;25.80;91.70;;;;;;4881383;29;20197;-69
2023/06/03 11:22:28;;;;;;;1.27;0.90;;;25.60;91.10;;;;;;4880218;29;20304;-69
2023/06/03 11:24:58;;;;;;;2.05;0.80;;;25.20;92.00;;;;;;4874030;29;20722;-69
2023/06/03 11:27:27;;;;;;;1.90;1.00;;;25.60;92.00;;;;;;4864945;29;20250;-68
2023/06/03 11:29:56;;;;;;;1.27;0.90;;;26.00;90.90;;;;;;4869365;29;20197;-68
2023/06/03 11:32:30;;;;;;;1.02;0.85;;;25.70;91.90;;;;;;4890535;29;20514;-70
2023/06/03 11:35:03;;;;;;;1.33;0.93;;;24.90;91.70;;;;;;4885398;29;20216;-71
2023/06/03 11:37:52;;;;;;;3.33;1.00;;;24.80;92.40;;;;;;4848706;29;20293;-69
2023/06/03 11:40:21;;;;;;;1.02;0.80;;;25.10;92.20;;;;;;4878731;29;20190;-69
2023/06/03 11:42:51;;;;;;;3.63;0.90;;;24.40;99.90;;;;;;4859516;29;20197;-70
2023/06/03 11:45:28;;;;;;;1.15;0.80;;;24.80;92.10;;;;;;4888731;29;20248;-71
2023/06/03 11:48:03;;;;;;;0.70;0.70;;;25.20;92.00;;;;;;4873466;29;20197;-69
2023/06/03 11:50:53;;;;;;;1.45;0.80;;;25.20;92.20;;;;;;4889884;29;20205;-71
2023/06/03 11:53:32;;;;;;;1.70;0.80;;;24.70;90.70;;;;;;4867651;29;20696;-68
2023/06/03 11:56:03;;;;;;;1.23;0.95;;;24.40;90.70;;;;;;4879296;29;20687;-68
2023/06/03 11:58:30;;;;;;;1.75;1.00;;;24.50;91.10;;;;;;4883691;29;20201;-71
2023/06/03 12:01:05;;;;;;;1.15;0.70;;;24.20;90.90;;;;;;4883752;29;20208;-72
2023/06/03 12:03:33;;;;;;;1.45;0.80;;;24.40;91.00;;;;;;4889672;29;20196;-69
2023/06/03 12:06:02;;;;;;;2.00;1.10;;;24.00;90.10;;;;;;4883561;29;20651;-69
2023/06/03 12:08:46;;;;;;;1.42;0.77;;;23.90;90.30;;;;;;4878411;29;20212;-69
2023/06/03 12:11:30;;;;;;;1.65;0.90;;;25.10;91.30;;;;;;4883490;29;20199;-69
2023/06/03 12:13:57;;;;;;;1.38;0.95;;;25.90;90.60;;;;;;4885459;29;20562;-72
2023/06/03 12:16:32;;;;;;;1.40;0.98;;;25.10;90.70;;;;;;4867544;29;20213;-72
2023/06/03 12:19:02;;;;;;;1.50;1.00;;;24.90;90.30;;;;;;4884035;29;20255;-69
2023/06/03 12:21:32;;;;;;;0.80;0.80;;;24.10;90.20;;;;;;4887883;29;20201;-69
2023/06/03 12:23:59;;;;;;;0.80;0.73;;;23.80;89.20;;;;;;4867326;29;20225;-68
2023/06/03 12:26:39;;;;;;;0.82;0.80;;;23.50;90.30;;;;;;4872066;29;20221;-69
2023/06/03 12:29:11;;;;;;;0.75;0.75;;;23.50;99.90;;;;;;4873168;29;20197;-69
2023/06/03 12:31:39;;;;;;;1.85;0.80;;;23.40;91.10;;;;;;4890846;29;20687;-72
2023/06/03 12:34:06;;;;;;;2.70;0.82;;;23.50;90.30;;;;;;4873310;29;20265;-68
2023/06/03 12:36:51;;;;;;;2.15;0.82;;;23.20;90.40;;;;;;4888389;29;20666;-67
2023/06/03 12:39:19;;;;;;;3.45;0.88;;;23.40;91.00;;;;;;4877749;29;20978;-67
2023/06/03 12:41:53;;;;;;;3.22;0.95;;;22.70;90.50;;;;;;4867802;29;20289;-65
2023/06/03 12:44:21;;;;;;;2.65;1.00;;;22.60;91.00;;;;;;4871695;29;20686;-65
2023/06/03 12:47:01;;;;;;;0.70;0.70;;;22.00;90.60;;;;;;4886981;29;20563;-65
2023/06/03 12:49:30;;;;;;;1.00;0.80;;;22.30;91.20;;;;;;4888793;29;20201;-65
2023/06/03 12:52:18;;;;;;;1.17;1.05;;;22.20;91.90;;;;;;4880755;29;20190;-65
2023/06/03 12:54:53;;;;;;;1.10;0.90;;;22.80;91.00;;;;;;4881585;29;20194;-65
2023/06/03 12:57:21;;;;;;;1.10;1.00;;;22.40;91.20;;;;;;4883875;29;20672;-65
2023/06/03 12:59:59;;;;;;;1.55;0.90;;;21.80;91.30;;;;;;4868799;29;20232;-66
2023/06/03 13:02:27;;;;;;;1.65;1.00;;;22.30;91.00;;;;;;4884213;29;20835;-65